sensor_id;sensor_type;location;lat;lon;timestamp;pressure;altitude;pressure_sealevel;temperature;humidity
72409;BME280;60402;48.082;11.628;2023-06-22T00:02:27;95402.91;;;20.73;86.30
72409;BME280;60402;48.082;11.628;2023-06-22T00:05:12;95400.34;;;20.81;86.42
72409;BME280;60402;48.082;11.628;2023-06-22T00:08:02;95399.69;;;20.60;87.37
72409;BME280;60402;48.082;11.628;2023-06-22T00:10:48;95400.31;;;20.38;88.56
72409;BME280;60402;48.082;11.628;2023-06-22T00:13:34;95399.53;;;20.00;90.53
72409;BME280;60402;48.082;11.628;2023-06-22T00:16:20;95393.03;;;20.05;90.65
72409;BME280;60402;48.082;11.628;2023-06-22T00:19:05;95398.63;;;20.20;89.85
72409;BME280;60402;48.082;11.628;2023-06-22T00:21:51;95409.22;;;20.46;88.03
72409;BME280;60402;48.082;11.628;2023-06-22T00:24:39;95410.00;;;20.46;88.31
72409;BME280;60402;48.082;11.628;2023-06-22T00:27:25;95418.16;;;20.48;88.61
72409;BME280;60402;48.082;11.628;2023-06-22T00:30:11;95412.03;;;20.34;89.03
72409;BME280;60402;48.082;11.628;2023-06-22T00:32:57;95405.50;;;20.34;89.28
72409;BME280;60402;48.082;11.628;2023-06-22T00:35:43;95408.09;;;20.32;89.36
72409;BME280;60402;48.082;11.628;2023-06-22T00:38:29;95418.22;;;20.27;89.87
72409;BME280;60402;48.082;11.628;2023-06-22T00:41:15;95398.59;;;20.14;90.24
72409;BME280;60402;48.082;11.628;2023-06-22T00:44:00;95399.28;;;20.04;90.66
72409;BME280;60402;48.082;11.628;2023-06-22T00:46:46;95387.22;;;19.94;90.85
72409;BME280;60402;48.082;11.628;2023-06-22T00:49:32;95407.06;;;20.35;89.59
72409;BME280;60402;48.082;11.628;2023-06-22T00:52:22;95399.44;;;20.26;89.22
72409;BME280;60402;48.082;11.628;2023-06-22T00:55:12;95413.28;;;20.28;89.42
72409;BME280;60402;48.082;11.628;2023-06-22T00:57:58;95403.56;;;20.14;90.09
72409;BME280;60402;48.082;11.628;2023-06-22T01:00:43;95395.31;;;19.96;90.80
72409;BME280;60402;48.082;11.628;2023-06-22T01:03:29;95398.69;;;19.94;91.21
72409;BME280;60402;48.082;11.628;2023-06-22T01:06:20;95382.31;;;20.00;90.39
72409;BME280;60402;48.082;11.628;2023-06-22T01:09:14;95390.13;;;20.00;90.95
72409;BME280;60402;48.082;11.628;2023-06-22T01:12:06;95368.44;;;19.93;90.74
72409;BME280;60402;48.082;11.628;2023-06-22T01:14:58;95380.88;;;19.84;91.45
72409;BME280;60402;48.082;11.628;2023-06-22T01:17:48;95388.66;;;19.78;92.22
72409;BME280;60402;48.082;11.628;2023-06-22T01:20:34;95388.00;;;19.63;93.03
72409;BME280;60402;48.082;11.628;2023-06-22T01:23:37;95380.66;;;19.36;95.28
72409;BME280;60402;48.082;11.628;2023-06-22T01:26:36;95384.94;;;19.20;96.50
72409;BME280;60402;48.082;11.628;2023-06-22T01:29:24;95381.97;;;19.14;96.83
72409;BME280;60402;48.082;11.628;2023-06-22T01:32:11;95377.44;;;19.28;96.08
72409;BME280;60402;48.082;11.628;2023-06-22T01:34:58;95373.03;;;19.27;95.96
72409;BME280;60402;48.082;11.628;2023-06-22T01:37:45;95369.53;;;19.18;96.49
72409;BME280;60402;48.082;11.628;2023-06-22T01:40:33;95351.94;;;19.04;96.77
72409;BME280;60402;48.082;11.628;2023-06-22T01:43:21;95342.00;;;19.00;97.05
72409;BME280;60402;48.082;11.628;2023-06-22T01:46:08;95345.50;;;19.35;94.39
72409;BME280;60402;48.082;11.628;2023-06-22T01:48:55;95349.81;;;19.51;94.02
72409;BME280;60402;48.082;11.628;2023-06-22T01:51:41;95343.03;;;19.49;93.87
72409;BME280;60402;48.082;11.628;2023-06-22T01:54:26;95336.16;;;19.40;93.59
72409;BME280;60402;48.082;11.628;2023-06-22T01:57:12;95344.75;;;19.40;94.08
72409;BME280;60402;48.082;11.628;2023-06-22T02:00:04;95325.00;;;19.17;94.70
72409;BME280;60402;48.082;11.628;2023-06-22T02:03:01;95327.13;;;19.22;94.25
72409;BME280;60402;48.082;11.628;2023-06-22T02:05:56;95340.00;;;19.32;94.05
72409;BME280;60402;48.082;11.628;2023-06-22T02:08:55;95355.66;;;19.36;94.50
72409;BME280;60402;48.082;11.628;2023-06-22T02:11:44;95342.28;;;19.28;93.82
72409;BME280;60402;48.082;11.628;2023-06-22T02:14:31;95356.88;;;19.56;93.17
72409;BME280;60402;48.082;11.628;2023-06-22T02:17:18;95348.19;;;19.45;93.04
72409;BME280;60402;48.082;11.628;2023-06-22T02:20:04;95348.06;;;19.33;94.54
72409;BME280;60402;48.082;11.628;2023-06-22T02:22:54;95338.47;;;19.36;94.71
72409;BME280;60402;48.082;11.628;2023-06-22T02:25:39;95353.78;;;19.33;94.78
72409;BME280;60402;48.082;11.628;2023-06-22T02:28:25;95348.81;;;19.28;94.88
72409;BME280;60402;48.082;11.628;2023-06-22T02:31:11;95352.41;;;19.23;95.04
72409;BME280;60402;48.082;11.628;2023-06-22T02:33:59;95353.47;;;19.26;94.83
72409;BME280;60402;48.082;11.628;2023-06-22T02:36:46;95356.41;;;19.31;94.33
72409;BME280;60402;48.082;11.628;2023-06-22T02:39:36;95348.69;;;19.17;94.47
72409;BME280;60402;48.082;11.628;2023-06-22T02:42:22;95374.31;;;19.26;94.02
72409;BME280;60402;48.082;11.628;2023-06-22T02:45:08;95374.31;;;19.26;93.96
72409;BME280;60402;48.082;11.628;2023-06-22T02:47:55;95383.78;;;19.38;93.43
72409;BME280;60402;48.082;11.628;2023-06-22T02:50:40;95373.31;;;19.29;93.83
72409;BME280;60402;48.082;11.628;2023-06-22T02:53:26;95374.88;;;19.30;94.22
72409;BME280;60402;48.082;11.628;2023-06-22T02:56:12;95390.56;;;19.35;94.06
72409;BME280;60402;48.082;11.628;2023-06-22T02:58:58;95370.88;;;19.22;94.32
72409;BME280;60402;48.082;11.628;2023-06-22T03:01:46;95377.13;;;19.21;95.17
72409;BME280;60402;48.082;11.628;2023-06-22T03:04:32;95373.69;;;19.17;95.50
72409;BME280;60402;48.082;11.628;2023-06-22T03:07:18;95369.19;;;19.10;96.18
72409;BME280;60402;48.082;11.628;2023-06-22T03:10:04;95374.28;;;19.00;98.14
72409;BME280;60402;48.082;11.628;2023-06-22T03:12:49;95365.41;;;18.98;98.89
72409;BME280;60402;48.082;11.628;2023-06-22T03:15:35;95377.94;;;19.01;99.66
72409;BME280;60402;48.082;11.628;2023-06-22T03:18:21;95371.16;;;18.98;98.44
72409;BME280;60402;48.082;11.628;2023-06-22T03:21:07;95366.66;;;18.92;99.32
72409;BME280;60402;48.082;11.628;2023-06-22T03:23:53;95375.16;;;18.86;99.88
72409;BME280;60402;48.082;11.628;2023-06-22T03:26:39;95360.66;;;18.69;100.00
72409;BME280;60402;48.082;11.628;2023-06-22T03:29:24;95349.38;;;18.65;100.00
72409;BME280;60402;48.082;11.628;2023-06-22T03:32:10;95354.72;;;18.73;100.00
72409;BME280;60402;48.082;11.628;2023-06-22T03:34:56;95356.63;;;18.81;100.00
72409;BME280;60402;48.082;11.628;2023-06-22T03:37:44;95374.00;;;18.98;100.00
72409;BME280;60402;48.082;11.628;2023-06-22T03:40:29;95359.00;;;18.83;100.00
72409;BME280;60402;48.082;11.628;2023-06-22T03:43:15;95375.78;;;19.16;98.96
72409;BME280;60402;48.082;11.628;2023-06-22T03:46:00;95349.59;;;19.03;99.00
72409;BME280;60402;48.082;11.628;2023-06-22T03:48:46;95355.75;;;18.96;99.91
72409;BME280;60402;48.082;11.628;2023-06-22T03:51:32;95378.84;;;19.12;99.31
72409;BME280;60402;48.082;11.628;2023-06-22T03:54:18;95381.00;;;19.44;97.48
72409;BME280;60402;48.082;11.628;2023-06-22T03:57:04;95366.78;;;19.29;97.37
72409;BME280;60402;48.082;11.628;2023-06-22T03:59:50;95367.13;;;19.10;98.54
72409;BME280;60402;48.082;11.628;2023-06-22T04:02:35;95370.25;;;19.12;97.68
72409;BME280;60402;48.082;11.628;2023-06-22T04:05:21;95382.22;;;19.37;96.97
72409;BME280;60402;48.082;11.628;2023-06-22T04:08:07;95394.06;;;19.24;98.69
72409;BME280;60402;48.082;11.628;2023-06-22T04:10:53;95389.38;;;19.21;99.29
72409;BME280;60402;48.082;11.628;2023-06-22T04:13:39;95375.16;;;19.32;97.76
72409;BME280;60402;48.082;11.628;2023-06-22T04:16:24;95383.25;;;19.60;96.71
72409;BME280;60402;48.082;11.628;2023-06-22T04:19:10;95376.06;;;19.70;95.91
72409;BME280;60402;48.082;11.628;2023-06-22T04:22:01;95378.97;;;19.76;95.87
72409;BME280;60402;48.082;11.628;2023-06-22T04:24:47;95378.28;;;19.86;96.38
72409;BME280;60402;48.082;11.628;2023-06-22T04:27:33;95362.84;;;19.78;96.66
72409;BME280;60402;48.082;11.628;2023-06-22T04:30:24;95368.31;;;19.76;98.00
72409;BME280;60402;48.082;11.628;2023-06-22T04:33:10;95369.56;;;19.44;100.00
72409;BME280;60402;48.082;11.628;2023-06-22T04:35:56;95354.94;;;19.41;100.00
72409;BME280;60402;48.082;11.628;2023-06-22T04:38:42;95352.69;;;19.77;98.23
72409;BME280;60402;48.082;11.628;2023-06-22T04:41:30;95369.38;;;20.16;96.27
72409;BME280;60402;48.082;11.628;2023-06-22T04:44:17;95375.88;;;20.48;95.46
72409;BME280;60402;48.082;11.628;2023-06-22T04:47:09;95367.09;;;20.63;94.15
72409;BME280;60402;48.082;11.628;2023-06-22T04:49:55;95377.38;;;20.86;93.15
72409;BME280;60402;48.082;11.628;2023-06-22T04:52:41;95365.22;;;20.54;94.98
72409;BME280;60402;48.082;11.628;2023-06-22T04:55:26;95365.72;;;20.53;95.00
72409;BME280;60402;48.082;11.628;2023-06-22T04:58:12;95361.97;;;20.41;95.39
72409;BME280;60402;48.082;11.628;2023-06-22T05:00:58;95358.50;;;20.74;93.79
72409;BME280;60402;48.082;11.628;2023-06-22T05:03:44;95372.66;;;20.83;93.77
72409;BME280;60402;48.082;11.628;2023-06-22T05:06:29;95353.09;;;20.87;93.63
72409;BME280;60402;48.082;11.628;2023-06-22T05:09:15;95358.69;;;21.13;92.56
72409;BME280;60402;48.082;11.628;2023-06-22T05:12:02;95344.56;;;21.15;92.02
72409;BME280;60402;48.082;11.628;2023-06-22T05:14:48;95335.66;;;21.02;92.43
72409;BME280;60402;48.082;11.628;2023-06-22T05:17:34;95333.84;;;21.05;92.40
72409;BME280;60402;48.082;11.628;2023-06-22T05:20:21;95339.13;;;21.23;92.46
72409;BME280;60402;48.082;11.628;2023-06-22T05:23:07;95338.28;;;21.06;92.63
72409;BME280;60402;48.082;11.628;2023-06-22T05:25:53;95342.16;;;20.97;94.32
72409;BME280;60402;48.082;11.628;2023-06-22T05:28:40;95341.81;;;20.73;95.48
72409;BME280;60402;48.082;11.628;2023-06-22T05:31:26;95353.09;;;20.93;95.15
72409;BME280;60402;48.082;11.628;2023-06-22T05:34:22;95329.03;;;20.79;95.05
72409;BME280;60402;48.082;11.628;2023-06-22T05:37:07;95345.09;;;21.19;93.69
72409;BME280;60402;48.082;11.628;2023-06-22T05:39:55;95356.97;;;21.61;91.88
72409;BME280;60402;48.082;11.628;2023-06-22T05:42:40;95335.00;;;21.58;91.30
72409;BME280;60402;48.082;11.628;2023-06-22T05:45:26;95336.31;;;21.90;89.44
72409;BME280;60402;48.082;11.628;2023-06-22T05:48:12;95347.03;;;21.90;89.67
72409;BME280;60402;48.082;11.628;2023-06-22T05:50:57;95346.78;;;22.05;88.68
72409;BME280;60402;48.082;11.628;2023-06-22T05:53:43;95344.44;;;22.14;87.90
72409;BME280;60402;48.082;11.628;2023-06-22T05:56:29;95358.56;;;22.18;88.02
72409;BME280;60402;48.082;11.628;2023-06-22T05:59:15;95339.19;;;21.90;89.50
72409;BME280;60402;48.082;11.628;2023-06-22T06:02:01;95347.00;;;22.46;87.09
72409;BME280;60402;48.082;11.628;2023-06-22T06:04:47;95364.19;;;22.80;85.07
72409;BME280;60402;48.082;11.628;2023-06-22T06:07:32;95364.78;;;22.50;85.58
72409;BME280;60402;48.082;11.628;2023-06-22T06:10:19;95351.59;;;22.83;84.65
72409;BME280;60402;48.082;11.628;2023-06-22T06:13:05;95355.34;;;23.30;82.37
72409;BME280;60402;48.082;11.628;2023-06-22T06:15:51;95297.91;;;22.80;83.04
72409;BME280;60402;48.082;11.628;2023-06-22T06:18:36;95304.91;;;23.07;82.15
72409;BME280;60402;48.082;11.628;2023-06-22T06:21:23;95330.16;;;22.67;84.90
72409;BME280;60402;48.082;11.628;2023-06-22T06:24:08;95328.13;;;23.26;81.63
72409;BME280;60402;48.082;11.628;2023-06-22T06:26:54;95339.59;;;23.78;79.63
72409;BME280;60402;48.082;11.628;2023-06-22T06:29:40;95344.19;;;23.92;78.95
72409;BME280;60402;48.082;11.628;2023-06-22T06:32:26;95330.63;;;23.82;78.72
72409;BME280;60402;48.082;11.628;2023-06-22T06:35:13;95340.25;;;23.95;77.86
72409;BME280;60402;48.082;11.628;2023-06-22T06:37:59;95340.09;;;24.42;76.69
72409;BME280;60402;48.082;11.628;2023-06-22T06:40:45;95319.44;;;25.01;73.29
72409;BME280;60402;48.082;11.628;2023-06-22T06:43:30;95328.72;;;24.93;73.01
72409;BME280;60402;48.082;11.628;2023-06-22T06:46:16;95316.59;;;25.38;72.02
72409;BME280;60402;48.082;11.628;2023-06-22T06:49:02;95314.50;;;25.39;70.28
72409;BME280;60402;48.082;11.628;2023-06-22T06:51:47;95316.00;;;25.45;70.39
72409;BME280;60402;48.082;11.628;2023-06-22T06:54:33;95331.06;;;25.38;70.83
72409;BME280;60402;48.082;11.628;2023-06-22T06:57:19;95313.50;;;25.36;71.01
72409;BME280;60402;48.082;11.628;2023-06-22T07:00:08;95330.38;;;25.51;69.79
72409;BME280;60402;48.082;11.628;2023-06-22T07:02:58;95323.59;;;25.99;68.11
72409;BME280;60402;48.082;11.628;2023-06-22T07:05:44;95338.66;;;26.11;67.04
72409;BME280;60402;48.082;11.628;2023-06-22T07:08:30;95307.25;;;26.61;64.92
72409;BME280;60402;48.082;11.628;2023-06-22T07:11:15;95329.38;;;27.85;61.63
72409;BME280;60402;48.082;11.628;2023-06-22T07:14:01;95328.66;;;28.97;56.64
72409;BME280;60402;48.082;11.628;2023-06-22T07:16:47;95332.63;;;29.51;55.20
72409;BME280;60402;48.082;11.628;2023-06-22T07:19:33;95323.31;;;31.19;49.80
72409;BME280;60402;48.082;11.628;2023-06-22T07:22:18;95333.41;;;31.48;48.68
72409;BME280;60402;48.082;11.628;2023-06-22T07:25:05;95319.41;;;31.79;47.58
72409;BME280;60402;48.082;11.628;2023-06-22T07:28:04;95328.34;;;31.97;46.75
72409;BME280;60402;48.082;11.628;2023-06-22T07:30:50;95328.06;;;32.10;46.24
72409;BME280;60402;48.082;11.628;2023-06-22T07:33:36;95324.31;;;32.75;43.98
72409;BME280;60402;48.082;11.628;2023-06-22T07:36:22;95317.31;;;32.13;45.23
72409;BME280;60402;48.082;11.628;2023-06-22T07:39:08;95305.91;;;31.51;46.92
72409;BME280;60402;48.082;11.628;2023-06-22T07:41:53;95293.09;;;31.95;45.42
72409;BME280;60402;48.082;11.628;2023-06-22T07:44:39;95318.28;;;31.83;46.23
72409;BME280;60402;48.082;11.628;2023-06-22T07:47:24;95304.06;;;33.12;43.71
72409;BME280;60402;48.082;11.628;2023-06-22T07:50:13;95305.28;;;33.09;43.41
72409;BME280;60402;48.082;11.628;2023-06-22T07:52:59;95304.66;;;33.10;43.52
72409;BME280;60402;48.082;11.628;2023-06-22T07:55:45;95305.50;;;33.90;40.96
72409;BME280;60402;48.082;11.628;2023-06-22T07:58:31;95316.41;;;34.06;39.97
72409;BME280;60402;48.082;11.628;2023-06-22T08:01:17;95296.09;;;33.91;40.22
72409;BME280;60402;48.082;11.628;2023-06-22T08:04:04;95305.88;;;33.59;40.34
72409;BME280;60402;48.082;11.628;2023-06-22T08:06:51;95314.03;;;32.91;41.47
72409;BME280;60402;48.082;11.628;2023-06-22T08:09:36;95315.22;;;31.65;45.14
72409;BME280;60402;48.082;11.628;2023-06-22T08:12:22;95307.19;;;32.14;44.15
72409;BME280;60402;48.082;11.628;2023-06-22T08:15:08;95296.66;;;31.86;44.67
72409;BME280;60402;48.082;11.628;2023-06-22T08:17:54;95316.38;;;30.68;47.36
72409;BME280;60402;48.082;11.628;2023-06-22T08:20:40;95311.91;;;30.98;46.80
72409;BME280;60402;48.082;11.628;2023-06-22T08:23:26;95307.06;;;30.77;47.40
72409;BME280;60402;48.082;11.628;2023-06-22T08:26:11;95297.00;;;31.90;45.26
72409;BME280;60402;48.082;11.628;2023-06-22T08:28:57;95293.63;;;31.61;45.43
72409;BME280;60402;48.082;11.628;2023-06-22T08:31:43;95293.31;;;31.41;46.42
72409;BME280;60402;48.082;11.628;2023-06-22T08:34:28;95297.75;;;31.50;45.57
72409;BME280;60402;48.082;11.628;2023-06-22T08:37:14;95279.53;;;31.26;46.72
72409;BME280;60402;48.082;11.628;2023-06-22T08:40:01;95294.25;;;30.73;48.08
72409;BME280;60402;48.082;11.628;2023-06-22T08:42:49;95287.63;;;30.49;48.98
72409;BME280;60402;48.082;11.628;2023-06-22T08:45:35;95286.25;;;30.20;48.85
72409;BME280;60402;48.082;11.628;2023-06-22T08:48:21;95291.25;;;30.04;50.20
72409;BME280;60402;48.082;11.628;2023-06-22T08:51:06;95296.34;;;30.34;49.32
72409;BME280;60402;48.082;11.628;2023-06-22T08:53:52;95262.38;;;30.21;50.12
72409;BME280;60402;48.082;11.628;2023-06-22T08:56:38;95268.19;;;30.37;48.77
72409;BME280;60402;48.082;11.628;2023-06-22T08:59:23;95290.47;;;30.11;50.43
72409;BME280;60402;48.082;11.628;2023-06-22T09:02:09;95285.88;;;30.46;48.67
72409;BME280;60402;48.082;11.628;2023-06-22T09:04:55;95276.16;;;30.28;49.22
72409;BME280;60402;48.082;11.628;2023-06-22T09:07:41;95284.50;;;30.70;48.01
72409;BME280;60402;48.082;11.628;2023-06-22T09:10:27;95272.44;;;30.89;47.38
72409;BME280;60402;48.082;11.628;2023-06-22T09:13:13;95267.19;;;30.80;47.21
72409;BME280;60402;48.082;11.628;2023-06-22T09:15:58;95275.16;;;30.64;47.40
72409;BME280;60402;48.082;11.628;2023-06-22T09:18:47;95274.84;;;31.23;47.42
72409;BME280;60402;48.082;11.628;2023-06-22T09:21:33;95275.66;;;31.72;46.15
72409;BME280;60402;48.082;11.628;2023-06-22T09:24:18;95267.78;;;31.49;46.90
72409;BME280;60402;48.082;11.628;2023-06-22T09:27:04;95271.84;;;30.91;46.48
72409;BME280;60402;48.082;11.628;2023-06-22T09:29:50;95276.63;;;31.19;46.19
72409;BME280;60402;48.082;11.628;2023-06-22T09:32:36;95262.56;;;30.31;46.47
72409;BME280;60402;48.082;11.628;2023-06-22T09:35:21;95266.97;;;30.86;45.82
72409;BME280;60402;48.082;11.628;2023-06-22T09:38:07;95265.91;;;31.21;45.84
72409;BME280;60402;48.082;11.628;2023-06-22T09:40:53;95263.34;;;31.81;46.13
72409;BME280;60402;48.082;11.628;2023-06-22T09:43:38;95239.00;;;30.52;46.25
72409;BME280;60402;48.082;11.628;2023-06-22T09:46:24;95266.47;;;31.35;45.98
72409;BME280;60402;48.082;11.628;2023-06-22T09:49:13;95268.44;;;31.73;45.05
72409;BME280;60402;48.082;11.628;2023-06-22T09:51:59;95260.88;;;32.02;42.85
72409;BME280;60402;48.082;11.628;2023-06-22T09:54:44;95263.66;;;31.93;42.18
72409;BME280;60402;48.082;11.628;2023-06-22T09:57:30;95232.00;;;31.41;43.56
72409;BME280;60402;48.082;11.628;2023-06-22T10:00:16;95248.56;;;31.39;43.33
72409;BME280;60402;48.082;11.628;2023-06-22T10:03:02;95244.06;;;32.11;42.51
72409;BME280;60402;48.082;11.628;2023-06-22T10:05:48;95243.28;;;32.35;42.57
72409;BME280;60402;48.082;11.628;2023-06-22T10:08:34;95235.94;;;32.01;42.58
72409;BME280;60402;48.082;11.628;2023-06-22T10:11:20;95247.00;;;31.78;42.54
72409;BME280;60402;48.082;11.628;2023-06-22T10:14:12;95236.97;;;31.96;43.42
72409;BME280;60402;48.082;11.628;2023-06-22T10:16:58;95241.66;;;31.92;43.91
72409;BME280;60402;48.082;11.628;2023-06-22T10:19:43;95239.59;;;32.10;41.10
72409;BME280;60402;48.082;11.628;2023-06-22T10:22:29;95224.75;;;31.90;41.46
72409;BME280;60402;48.082;11.628;2023-06-22T10:25:15;95220.91;;;32.30;41.32
72409;BME280;60402;48.082;11.628;2023-06-22T10:28:00;95208.81;;;32.09;41.78
72409;BME280;60402;48.082;11.628;2023-06-22T10:30:46;95227.94;;;32.27;42.02
72409;BME280;60402;48.082;11.628;2023-06-22T10:33:31;95223.81;;;32.38;42.04
72409;BME280;60402;48.082;11.628;2023-06-22T10:36:17;95226.56;;;32.03;42.02
72409;BME280;60402;48.082;11.628;2023-06-22T10:39:03;95220.28;;;32.39;42.72
72409;BME280;60402;48.082;11.628;2023-06-22T10:41:48;95211.72;;;32.59;42.18
72409;BME280;60402;48.082;11.628;2023-06-22T10:44:34;95207.72;;;32.46;41.40
72409;BME280;60402;48.082;11.628;2023-06-22T10:47:22;95203.34;;;32.38;41.87
72409;BME280;60402;48.082;11.628;2023-06-22T10:50:09;95193.19;;;32.39;42.55
72409;BME280;60402;48.082;11.628;2023-06-22T10:52:57;95198.19;;;32.46;42.12
72409;BME280;60402;48.082;11.628;2023-06-22T10:55:43;95196.56;;;32.52;41.35
72409;BME280;60402;48.082;11.628;2023-06-22T10:58:29;95215.34;;;31.59;41.94
72409;BME280;60402;48.082;11.628;2023-06-22T11:01:15;95201.63;;;32.27;43.25
72409;BME280;60402;48.082;11.628;2023-06-22T11:04:00;95185.34;;;32.41;42.13
72409;BME280;60402;48.082;11.628;2023-06-22T11:06:48;95191.75;;;32.82;41.62
72409;BME280;60402;48.082;11.628;2023-06-22T11:09:34;95183.28;;;32.09;42.64
72409;BME280;60402;48.082;11.628;2023-06-22T11:12:19;95189.59;;;32.48;42.75
72409;BME280;60402;48.082;11.628;2023-06-22T11:15:05;95185.41;;;32.76;42.55
72409;BME280;60402;48.082;11.628;2023-06-22T11:17:51;95193.19;;;32.98;40.73
72409;BME280;60402;48.082;11.628;2023-06-22T11:20:37;95172.94;;;32.93;41.20
72409;BME280;60402;48.082;11.628;2023-06-22T11:23:24;95196.78;;;33.24;41.28
72409;BME280;60402;48.082;11.628;2023-06-22T11:26:11;95179.34;;;33.26;40.29
72409;BME280;60402;48.082;11.628;2023-06-22T11:28:57;95171.88;;;33.15;40.36
72409;BME280;60402;48.082;11.628;2023-06-22T11:31:43;95169.16;;;33.17;40.42
72409;BME280;60402;48.082;11.628;2023-06-22T11:34:29;95189.78;;;33.37;40.29
72409;BME280;60402;48.082;11.628;2023-06-22T11:37:15;95170.91;;;33.74;39.31
72409;BME280;60402;48.082;11.628;2023-06-22T11:40:00;95160.84;;;33.68;39.41
72409;BME280;60402;48.082;11.628;2023-06-22T11:42:47;95174.59;;;33.48;39.05
72409;BME280;60402;48.082;11.628;2023-06-22T11:45:33;95159.41;;;33.59;39.26
72409;BME280;60402;48.082;11.628;2023-06-22T11:48:18;95159.28;;;33.67;38.25
72409;BME280;60402;48.082;11.628;2023-06-22T11:51:04;95154.69;;;33.73;38.10
72409;BME280;60402;48.082;11.628;2023-06-22T11:53:51;95148.56;;;33.79;38.50
72409;BME280;60402;48.082;11.628;2023-06-22T11:56:37;95139.94;;;33.54;38.50
72409;BME280;60402;48.082;11.628;2023-06-22T11:59:23;95155.31;;;33.99;38.04
72409;BME280;60402;48.082;11.628;2023-06-22T12:02:08;95127.13;;;33.49;38.23
72409;BME280;60402;48.082;11.628;2023-06-22T12:04:54;95148.25;;;33.75;37.35
72409;BME280;60402;48.082;11.628;2023-06-22T12:07:43;95139.81;;;33.89;38.67
72409;BME280;60402;48.082;11.628;2023-06-22T12:10:29;95148.25;;;34.02;38.38
72409;BME280;60402;48.082;11.628;2023-06-22T12:13:15;95128.84;;;33.52;37.92
72409;BME280;60402;48.082;11.628;2023-06-22T12:16:00;95141.50;;;33.92;38.16
72409;BME280;60402;48.082;11.628;2023-06-22T12:18:46;95129.94;;;33.84;37.01
72409;BME280;60402;48.082;11.628;2023-06-22T12:21:32;95121.75;;;33.92;36.18
72409;BME280;60402;48.082;11.628;2023-06-22T12:24:17;95106.50;;;34.30;35.98
72409;BME280;60402;48.082;11.628;2023-06-22T12:27:04;95100.91;;;34.25;36.10
72409;BME280;60402;48.082;11.628;2023-06-22T12:29:49;95112.34;;;34.21;35.48
72409;BME280;60402;48.082;11.628;2023-06-22T12:32:35;95092.34;;;34.46;36.08
72409;BME280;60402;48.082;11.628;2023-06-22T12:35:20;95097.75;;;34.60;38.67
72409;BME280;60402;48.082;11.628;2023-06-22T12:38:06;95095.59;;;34.70;37.87
72409;BME280;60402;48.082;11.628;2023-06-22T12:40:53;95084.25;;;34.37;38.93
72409;BME280;60402;48.082;11.628;2023-06-22T12:43:40;95083.13;;;34.03;40.08
72409;BME280;60402;48.082;11.628;2023-06-22T12:46:26;95083.03;;;34.30;38.97
72409;BME280;60402;48.082;11.628;2023-06-22T12:49:11;95072.53;;;33.81;41.46
72409;BME280;60402;48.082;11.628;2023-06-22T12:51:57;95074.78;;;33.63;42.37
72409;BME280;60402;48.082;11.628;2023-06-22T12:54:42;95075.25;;;33.60;41.68
72409;BME280;60402;48.082;11.628;2023-06-22T12:57:28;95100.69;;;33.67;41.17
72409;BME280;60402;48.082;11.628;2023-06-22T13:00:14;95077.00;;;33.82;40.74
72409;BME280;60402;48.082;11.628;2023-06-22T13:03:00;95095.84;;;34.25;40.23
72409;BME280;60402;48.082;11.628;2023-06-22T13:05:46;95090.59;;;33.87;40.81
72409;BME280;60402;48.082;11.628;2023-06-22T13:08:31;95074.47;;;34.05;40.36
72409;BME280;60402;48.082;11.628;2023-06-22T13:11:17;95082.53;;;34.24;40.16
72409;BME280;60402;48.082;11.628;2023-06-22T13:14:03;95084.63;;;34.61;39.33
72409;BME280;60402;48.082;11.628;2023-06-22T13:16:49;95077.66;;;34.56;39.30
72409;BME280;60402;48.082;11.628;2023-06-22T13:19:35;95082.81;;;34.09;40.09
72409;BME280;60402;48.082;11.628;2023-06-22T13:22:31;95086.06;;;34.13;40.58
72409;BME280;60402;48.082;11.628;2023-06-22T13:25:17;95082.09;;;34.28;39.59
72409;BME280;60402;48.082;11.628;2023-06-22T13:28:04;95069.44;;;34.35;39.58
72409;BME280;60402;48.082;11.628;2023-06-22T13:30:50;95064.94;;;34.34;40.00
72409;BME280;60402;48.082;11.628;2023-06-22T13:33:37;95071.66;;;34.54;39.99
72409;BME280;60402;48.082;11.628;2023-06-22T13:36:23;95063.44;;;34.62;39.67
72409;BME280;60402;48.082;11.628;2023-06-22T13:39:08;95066.25;;;34.79;39.62
72409;BME280;60402;48.082;11.628;2023-06-22T13:41:54;95070.25;;;34.94;38.50
72409;BME280;60402;48.082;11.628;2023-06-22T13:44:40;95054.94;;;34.95;38.43
72409;BME280;60402;48.082;11.628;2023-06-22T13:47:25;95073.97;;;34.75;38.02
72409;BME280;60402;48.082;11.628;2023-06-22T13:50:11;95061.91;;;34.71;38.32
72409;BME280;60402;48.082;11.628;2023-06-22T13:52:58;95068.72;;;34.64;38.88
72409;BME280;60402;48.082;11.628;2023-06-22T13:55:44;95064.50;;;34.28;39.18
72409;BME280;60402;48.082;11.628;2023-06-22T13:58:29;95048.28;;;34.37;39.50
72409;BME280;60402;48.082;11.628;2023-06-22T14:01:15;95040.59;;;34.51;39.39
72409;BME280;60402;48.082;11.628;2023-06-22T14:04:00;95055.13;;;34.58;39.30
72409;BME280;60402;48.082;11.628;2023-06-22T14:06:47;95054.03;;;34.73;38.81
72409;BME280;60402;48.082;11.628;2023-06-22T14:09:33;95038.44;;;34.51;38.57
72409;BME280;60402;48.082;11.628;2023-06-22T14:12:18;95045.81;;;34.43;38.93
72409;BME280;60402;48.082;11.628;2023-06-22T14:15:05;95035.81;;;34.65;38.91
72409;BME280;60402;48.082;11.628;2023-06-22T14:17:50;95036.09;;;34.21;39.32
72409;BME280;60402;48.082;11.628;2023-06-22T14:20:36;95028.66;;;34.29;39.44
72409;BME280;60402;48.082;11.628;2023-06-22T14:23:22;95030.06;;;34.09;39.37
72409;BME280;60402;48.082;11.628;2023-06-22T14:26:07;95041.03;;;34.38;38.82
72409;BME280;60402;48.082;11.628;2023-06-22T14:28:53;95033.72;;;34.00;39.00
72409;BME280;60402;48.082;11.628;2023-06-22T14:31:38;95029.59;;;34.22;39.12